Time;durP1;ratioP1;P1;durP2;ratioP2;P2;SDS_P1;SDS_P2;PMS_P1;PMS_P2;Temp;Humidity;BMP_temperature;BMP_pressure;BME280_temperature;BME280_humidity;BME280_pressure;Samples;Min_cycle;Max_cycle;Signal;HPM_P1;HPM_P2
2023/08/10 00:00:12;;;;;;;;;;;;;;;21.68;29.05;97992.53;4941744;29;1100;-76
2023/08/10 00:02:40;;;;;;;;;;;;;;;21.77;28.68;97995.50;4942361;29;977;-75
2023/08/10 00:05:06;;;;;;;;;;;;;;;22.05;28.64;97987.44;4941561;29;1140;-76
2023/08/10 00:07:33;;;;;;;;;;;;;;;21.99;28.26;97989.25;4926046;29;1046;-75
2023/08/10 00:09:58;;;;;;;;;;;;;;;21.98;28.61;97982.00;4941862;29;948;-76
2023/08/10 00:12:24;;;;;;;;;;;;;;;21.92;28.79;97983.81;4925742;29;1903;-75
2023/08/10 00:14:49;;;;;;;;;;;;;;;21.92;28.60;97989.47;4957082;28;1068;-76
2023/08/10 00:17:18;;;;;;;;;;;;;;;21.98;28.34;97977.13;4957579;29;1040;-76
2023/08/10 00:19:44;;;;;;;;;;;;;;;21.88;28.76;97977.44;4941641;29;1238;-76
2023/08/10 00:22:10;;;;;;;;;;;;;;;21.97;28.57;97969.88;4941463;29;1224;-76
2023/08/10 00:24:36;;;;;;;;;;;;;;;21.71;29.08;97974.66;4957744;29;982;-75
2023/08/10 00:27:02;;;;;;;;;;;;;;;21.78;28.98;97963.13;4941408;29;935;-75
2023/08/10 00:29:28;;;;;;;;;;;;;;;21.73;28.89;97965.69;4893970;29;1148;-76
2023/08/10 00:31:54;;;;;;;;;;;;;;;21.77;28.71;97957.91;4941295;29;1899;-75
2023/08/10 00:34:19;;;;;;;;;;;;;;;21.88;28.53;97957.59;4938089;28;1252;-75
2023/08/10 00:36:45;;;;;;;;;;;;;;;21.90;28.75;97963.59;4923086;29;1113;-75
2023/08/10 00:39:11;;;;;;;;;;;;;;;21.88;28.60;97961.22;4923256;29;960;-75
2023/08/10 00:41:38;;;;;;;;;;;;;;;21.95;28.71;97963.06;4937869;29;1222;-75
2023/08/10 00:44:04;;;;;;;;;;;;;;;22.10;28.46;97955.72;4940083;29;968;-75
2023/08/10 00:46:30;;;;;;;;;;;;;;;21.94;28.74;97958.63;4952093;29;1163;-75
2023/08/10 00:48:55;;;;;;;;;;;;;;;22.17;28.33;97961.22;4942341;29;937;-75
2023/08/10 00:51:21;;;;;;;;;;;;;;;21.94;28.78;97964.31;4941892;29;1205;-76
2023/08/10 00:53:47;;;;;;;;;;;;;;;21.85;28.72;97957.25;4941214;29;1907;-75
2023/08/10 00:56:13;;;;;;;;;;;;;;;22.04;28.54;97954.69;4926296;29;1077;-75
2023/08/10 00:58:39;;;;;;;;;;;;;;;22.03;28.49;97956.75;4941879;29;985;-75
2023/08/10 01:01:04;;;;;;;;;;;;;;;21.81;28.76;97956.56;4941987;29;1256;-76
2023/08/10 01:03:30;;;;;;;;;;;;;;;21.88;28.93;97955.56;4941997;29;989;-76
2023/08/10 01:06:10;;;;;;;;;;;;;;;22.03;28.68;97950.28;4926176;29;1227;-75
2023/08/10 01:08:35;;;;;;;;;;;;;;;22.05;28.56;97950.63;4941907;29;1228;-75
2023/08/10 01:11:13;;;;;;;;;;;;;;;22.01;28.53;97958.41;4959127;29;882;-76
2023/08/10 01:13:47;;;;;;;;;;;;;;;22.05;28.43;97944.94;4958789;29;1918;-75
2023/08/10 01:16:13;;;;;;;;;;;;;;;22.02;28.28;97943.00;4925913;29;1192;-75
2023/08/10 01:18:38;;;;;;;;;;;;;;;21.87;28.85;97941.84;4940943;29;1248;-75
2023/08/10 01:21:08;;;;;;;;;;;;;;;21.88;28.67;97934.94;4941356;29;1094;-76
2023/08/10 01:23:35;;;;;;;;;;;;;;;21.69;28.79;97936.69;4925803;29;1121;-75
2023/08/10 01:26:01;;;;;;;;;;;;;;;21.67;29.02;97934.31;4941387;29;885;-75
2023/08/10 01:28:26;;;;;;;;;;;;;;;21.96;28.48;97937.09;4941071;29;887;-75
2023/08/10 01:30:53;;;;;;;;;;;;;;;22.00;28.62;97939.84;4957193;29;936;-75
2023/08/10 01:33:19;;;;;;;;;;;;;;;21.91;28.67;97940.47;4941183;29;1993;-75
2023/08/10 01:35:45;;;;;;;;;;;;;;;22.10;28.30;97941.56;4957120;29;1247;-76
2023/08/10 01:38:11;;;;;;;;;;;;;;;21.83;28.77;97937.06;4958556;29;1003;-76
2023/08/10 01:40:37;;;;;;;;;;;;;;;22.07;28.34;97929.09;4941203;29;1240;-76
2023/08/10 01:43:02;;;;;;;;;;;;;;;21.92;28.65;97938.47;4941453;29;1031;-76
2023/08/10 01:45:29;;;;;;;;;;;;;;;22.00;28.53;97934.97;4955625;28;1240;-75
2023/08/10 01:47:55;;;;;;;;;;;;;;;21.89;28.54;97939.34;4970234;28;940;-76
2023/08/10 01:50:22;;;;;;;;;;;;;;;21.77;28.77;97936.03;4969921;28;974;-75
2023/08/10 01:52:51;;;;;;;;;;;;;;;22.02;28.56;97931.66;4953456;29;1910;-75
2023/08/10 01:55:17;;;;;;;;;;;;;;;22.16;28.12;97925.63;4953789;29;1302;-75
2023/08/10 01:57:43;;;;;;;;;;;;;;;22.00;28.36;97922.84;4953959;29;1184;-75
2023/08/10 02:00:09;;;;;;;;;;;;;;;22.01;28.52;97918.75;4953626;29;1152;-76
2023/08/10 02:02:45;;;;;;;;;;;;;;;21.98;28.49;97908.34;4955326;29;1210;-75
2023/08/10 02:05:12;;;;;;;;;;;;;;;21.90;28.62;97918.28;4955480;28;1023;-76
2023/08/10 02:07:38;;;;;;;;;;;;;;;22.01;28.45;97930.09;4939685;29;981;-76
2023/08/10 02:10:04;;;;;;;;;;;;;;;21.73;29.06;97931.72;4923521;29;999;-75
2023/08/10 02:12:29;;;;;;;;;;;;;;;21.90;28.60;97929.59;4955950;29;1997;-76
2023/08/10 02:14:58;;;;;;;;;;;;;;;21.68;29.14;97935.88;4955712;29;1036;-75
2023/08/10 02:17:25;;;;;;;;;;;;;;;22.00;28.53;97939.84;4955620;29;1073;-76
2023/08/10 02:19:51;;;;;;;;;;;;;;;22.05;28.37;97940.06;4955386;29;1014;-75
2023/08/10 02:22:16;;;;;;;;;;;;;;;22.05;28.53;97947.78;4955500;29;994;-75
2023/08/10 02:24:42;;;;;;;;;;;;;;;21.96;28.54;97950.47;4955611;29;1020;-75
2023/08/10 02:27:08;;;;;;;;;;;;;;;22.07;28.62;97946.09;4955246;29;1064;-75
2023/08/10 02:29:33;;;;;;;;;;;;;;;22.09;28.53;97959.81;4939407;29;1082;-75
2023/08/10 02:32:00;;;;;;;;;;;;;;;21.91;28.63;97953.84;4955199;29;1914;-75
2023/08/10 02:34:26;;;;;;;;;;;;;;;21.96;28.63;97950.47;4955370;29;920;-76
2023/08/10 02:36:51;;;;;;;;;;;;;;;21.89;28.90;97956.34;4971209;28;963;-76
2023/08/10 02:39:17;;;;;;;;;;;;;;;21.91;28.83;97954.66;4955257;29;999;-75
2023/08/10 02:41:43;;;;;;;;;;;;;;;21.94;28.58;97947.31;4955391;29;1058;-75
2023/08/10 02:44:09;;;;;;;;;;;;;;;22.09;28.56;97960.59;4971521;28;1663;-75
2023/08/10 02:46:34;;;;;;;;;;;;;;;21.92;28.71;97955.47;4955018;29;1207;-75
2023/08/10 02:49:00;;;;;;;;;;;;;;;22.06;28.74;97949.38;4955012;29;1003;-75
2023/08/10 02:51:26;;;;;;;;;;;;;;;21.97;28.91;97952.09;4939548;29;1157;-75
2023/08/10 02:53:52;;;;;;;;;;;;;;;21.91;28.92;97948.19;4954962;29;1983;-75
2023/08/10 02:56:18;;;;;;;;;;;;;;;22.02;28.80;97951.50;4939506;29;1089;-75
2023/08/10 02:58:44;;;;;;;;;;;;;;;21.95;29.02;97951.72;4938895;29;1410;-76
2023/08/10 03:01:09;;;;;;;;;;;;;;;21.88;29.08;97949.91;4939283;29;1196;-76
2023/08/10 03:03:37;;;;;;;;;;;;;;;21.87;28.85;97956.81;4939791;29;1243;-75
2023/08/10 03:06:03;;;;;;;;;;;;;;;21.72;29.24;97953.56;4940491;29;1173;-75
2023/08/10 03:08:29;;;;;;;;;;;;;;;22.08;28.59;97942.03;4956535;29;987;-75
2023/08/10 03:10:57;;;;;;;;;;;;;;;22.02;28.62;97948.66;4940290;29;1218;-75
2023/08/10 03:13:24;;;;;;;;;;;;;;;21.90;28.77;97938.09;4946988;28;2117;-76
2023/08/10 03:15:52;;;;;;;;;;;;;;;22.03;28.56;97939.75;4940521;29;1452;-75
2023/08/10 03:18:17;;;;;;;;;;;;;;;21.90;28.89;97938.09;4927304;29;1700;-76
2023/08/10 03:20:43;;;;;;;;;;;;;;;22.11;28.66;97934.69;4927881;29;1083;-76
2023/08/10 03:23:09;;;;;;;;;;;;;;;21.95;29.19;97927.03;4927903;29;1119;-75
2023/08/10 03:25:36;;;;;;;;;;;;;;;21.87;29.23;97927.69;4960910;29;908;-76
2023/08/10 03:28:01;;;;;;;;;;;;;;;21.74;29.56;97934.09;4926806;29;1141;-75
2023/08/10 03:30:27;;;;;;;;;;;;;;;21.84;29.72;97940.69;4923040;29;1127;-75
2023/08/10 03:32:53;;;;;;;;;;;;;;;21.81;29.79;97942.41;4923084;29;1971;-75
2023/08/10 03:35:18;;;;;;;;;;;;;;;21.75;29.90;97940.53;4907236;29;1154;-77
2023/08/10 03:37:46;;;;;;;;;;;;;;;21.68;30.05;97940.75;4923229;29;967;-75
2023/08/10 03:40:11;;;;;;;;;;;;;;;21.88;29.74;97940.59;4891798;29;1273;-75
2023/08/10 03:42:37;;;;;;;;;;;;;;;21.98;29.75;97937.47;4904168;29;1134;-75
2023/08/10 03:45:04;;;;;;;;;;;;;;;21.81;29.94;97944.41;4919632;29;1243;-77
2023/08/10 03:47:30;;;;;;;;;;;;;;;22.17;29.59;97944.22;4904296;29;1075;-75
2023/08/10 03:49:56;;;;;;;;;;;;;;;21.84;30.31;97937.88;4904064;29;1112;-75
2023/08/10 03:52:23;;;;;;;;;;;;;;;21.79;30.48;97942.03;4903964;29;1915;-75
2023/08/10 03:54:48;;;;;;;;;;;;;;;22.07;29.88;97945.28;4903933;29;1019;-75
2023/08/10 03:57:14;;;;;;;;;;;;;;;21.96;29.98;97933.47;4919422;29;966;-76
2023/08/10 03:59:41;;;;;;;;;;;;;;;21.73;30.52;97941.00;4863593;29;1289;-75
2023/08/10 04:02:06;;;;;;;;;;;;;;;22.18;29.87;97951.47;4848088;29;1024;-75
2023/08/10 04:04:33;;;;;;;;;;;;;;;22.11;29.95;97946.00;4863202;29;1198;-75
2023/08/10 04:06:59;;;;;;;;;;;;;;;22.22;30.04;97946.47;4847862;29;1290;-75
2023/08/10 04:09:24;;;;;;;;;;;;;;;22.22;30.05;97937.97;4861038;29;1470;-75
2023/08/10 04:11:50;;;;;;;;;;;;;;;22.06;29.96;97932.38;4882019;29;1981;-76
2023/08/10 04:14:15;;;;;;;;;;;;;;;22.33;29.67;97929.97;4881643;29;1447;-75
2023/08/10 04:16:41;;;;;;;;;;;;;;;22.19;29.91;97936.06;4881700;29;1114;-75
2023/08/10 04:19:07;;;;;;;;;;;;;;;22.14;30.20;97928.13;4885901;29;1169;-75
2023/08/10 04:21:32;;;;;;;;;;;;;;;22.26;29.80;97935.84;4888120;29;1288;-76
2023/08/10 04:23:58;;;;;;;;;;;;;;;22.19;30.14;97933.22;4919251;29;995;-75
2023/08/10 04:26:24;;;;;;;;;;;;;;;22.23;30.01;97935.97;4919260;29;984;-75
2023/08/10 04:28:49;;;;;;;;;;;;;;;22.08;30.42;97941.22;4902554;29;1013;-75
2023/08/10 04:31:15;;;;;;;;;;;;;;;22.39;30.03;97937.91;4917192;29;963;-76
2023/08/10 04:33:40;;;;;;;;;;;;;;;22.26;30.30;97935.03;4922301;29;1978;-76
2023/08/10 04:36:07;;;;;;;;;;;;;;;22.34;30.29;97925.88;4967516;28;963;-76
2023/08/10 04:38:33;;;;;;;;;;;;;;;22.36;29.96;97926.22;4978715;28;937;-75
2023/08/10 04:40:58;;;;;;;;;;;;;;;22.19;30.60;97944.56;4961179;28;1387;-75
2023/08/10 04:43:24;;;;;;;;;;;;;;;22.21;30.71;97939.22;4961255;28;1140;-75
2023/08/10 04:45:50;;;;;;;;;;;;;;;22.17;30.67;97937.75;4978035;28;1332;-75
2023/08/10 04:48:15;;;;;;;;;;;;;;;22.45;30.36;97930.44;4960962;28;882;-75
2023/08/10 04:50:41;;;;;;;;;;;;;;;22.35;30.53;97926.69;4945347;28;839;-76
2023/08/10 04:53:07;;;;;;;;;;;;;;;22.34;30.69;97925.88;4977940;28;1907;-76
2023/08/10 04:55:32;;;;;;;;;;;;;;;22.28;30.82;97915.56;4961410;28;958;-76
2023/08/10 04:57:58;;;;;;;;;;;;;;;22.26;30.83;97918.84;4918158;29;1009;-77
2023/08/10 05:00:24;;;;;;;;;;;;;;;22.20;30.85;97914.97;4902556;29;902;-76
2023/08/10 05:02:50;;;;;;;;;;;;;;;22.39;30.60;97926.56;4886936;29;970;-76
2023/08/10 05:05:16;;;;;;;;;;;;;;;22.10;31.11;97933.06;4871783;29;1182;-76
2023/08/10 05:07:41;;;;;;;;;;;;;;;22.31;30.81;97929.59;4902529;29;966;-75
2023/08/10 05:10:08;;;;;;;;;;;;;;;22.40;30.72;97928.16;4902707;29;1058;-75
2023/08/10 05:12:34;;;;;;;;;;;;;;;22.23;30.76;97925.41;4902533;29;1983;-75
2023/08/10 05:15:00;;;;;;;;;;;;;;;22.30;30.57;97925.19;4886915;29;1076;-76
2023/08/10 05:17:26;;;;;;;;;;;;;;;22.50;30.20;97924.19;4887209;29;1239;-75
2023/08/10 05:19:52;;;;;;;;;;;;;;;22.21;31.12;97910.88;4886747;29;1012;-76
2023/08/10 05:22:17;;;;;;;;;;;;;;;22.26;30.85;97918.84;4902485;29;1066;-75
2023/08/10 05:24:43;;;;;;;;;;;;;;;22.21;31.11;97922.22;4918181;29;920;-76
2023/08/10 05:27:08;;;;;;;;;;;;;;;22.34;30.96;97920.22;4902611;29;1017;-76
2023/08/10 05:29:34;;;;;;;;;;;;;;;22.31;30.96;97918.28;4946042;28;958;-76
2023/08/10 05:32:00;;;;;;;;;;;;;;;22.34;30.73;97920.22;4960798;28;1910;-76
2023/08/10 05:34:25;;;;;;;;;;;;;;;22.32;30.93;97919.84;4959702;28;946;-75
2023/08/10 05:36:51;;;;;;;;;;;;;;;22.31;31.04;97917.47;4977978;28;932;-76
2023/08/10 05:39:17;;;;;;;;;;;;;;;22.45;30.71;97907.75;4944251;28;924;-76
2023/08/10 05:41:43;;;;;;;;;;;;;;;22.34;30.73;97914.53;4924143;29;1195;-77
2023/08/10 05:44:09;;;;;;;;;;;;;;;22.48;30.84;97906.81;4956037;29;961;-77
2023/08/10 05:46:34;;;;;;;;;;;;;;;22.38;30.98;97919.28;4950366;28;1233;-76
2023/08/10 05:49:00;;;;;;;;;;;;;;;22.26;31.25;97907.50;4940357;29;934;-76
2023/08/10 05:51:26;;;;;;;;;;;;;;;22.29;31.31;97929.28;4939798;29;990;-75
2023/08/10 05:53:51;;;;;;;;;;;;;;;22.36;31.05;97931.88;4924011;29;1891;-76
2023/08/10 05:56:17;;;;;;;;;;;;;;;22.20;31.45;97926.31;4908302;29;1478;-75
2023/08/10 05:58:42;;;;;;;;;;;;;;;22.53;30.98;97920.44;4898390;29;1037;-76
2023/08/10 06:01:08;;;;;;;;;;;;;;;22.55;31.08;97913.06;4883317;29;951;-76
2023/08/10 06:03:33;;;;;;;;;;;;;;;22.54;31.05;97927.72;4914561;29;983;-75
2023/08/10 06:06:00;;;;;;;;;;;;;;;22.57;30.72;97949.47;4914570;29;1067;-76
2023/08/10 06:08:26;;;;;;;;;;;;;;;22.52;31.07;97942.31;4898503;29;965;-75
2023/08/10 06:10:52;;;;;;;;;;;;;;;22.29;31.61;97932.13;4914647;29;1089;-75
2023/08/10 06:13:20;;;;;;;;;;;;;;;22.28;31.37;97927.69;4912359;29;1911;-75
2023/08/10 06:15:46;;;;;;;;;;;;;;;22.44;31.36;97928.84;4902478;29;974;-76
2023/08/10 06:18:11;;;;;;;;;;;;;;;22.51;31.47;97928.63;4886287;29;1256;-75
2023/08/10 06:20:37;;;;;;;;;;;;;;;22.62;30.96;97929.06;4917677;29;1166;-76
2023/08/10 06:23:03;;;;;;;;;;;;;;;22.30;31.75;97930.88;4886249;29;1281;-76
2023/08/10 06:25:30;;;;;;;;;;;;;;;22.33;31.73;97927.13;4864312;29;1283;-76
2023/08/10 06:27:57;;;;;;;;;;;;;;;22.57;31.17;97927.59;4879984;29;1107;-76
2023/08/10 06:30:23;;;;;;;;;;;;;;;22.77;31.10;97933.03;4924326;29;1293;-76
2023/08/10 06:32:49;;;;;;;;;;;;;;;22.59;31.08;97944.16;4920486;29;1911;-76
2023/08/10 06:35:25;;;;;;;;;;;;;;;;;;;;;
2023/08/10 06:37:51;;;;;;;;;;;;;;;22.83;30.86;97951.06;4879704;29;984;-76
2023/08/10 06:40:17;;;;;;;;;;;;;;;22.53;31.40;97945.94;4864213;29;1103;-76
2023/08/10 06:42:44;;;;;;;;;;;;;;;22.29;31.72;97951.94;4879775;29;1113;-75
2023/08/10 06:45:23;;;;;;;;;;;;;;;22.48;31.57;97952.19;4879276;29;1160;-76
2023/08/10 06:47:49;;;;;;;;;;;;;;;22.36;32.06;97940.38;4879479;29;958;-76
2023/08/10 06:50:16;;;;;;;;;;;;;;;22.58;31.60;97951.06;4879571;29;1064;-77
2023/08/10 06:52:41;;;;;;;;;;;;;;;22.63;31.58;97947.66;4867317;29;2094;-77
2023/08/10 06:55:07;;;;;;;;;;;;;;;22.40;32.10;97945.16;4883306;29;1241;-76
2023/08/10 06:57:34;;;;;;;;;;;;;;;22.54;31.78;97944.72;4884948;29;970;-76
2023/08/10 07:00:01;;;;;;;;;;;;;;;22.59;31.31;97944.16;4886723;29;1081;-76
2023/08/10 07:02:27;;;;;;;;;;;;;;;22.65;31.77;97942.34;4904029;29;939;-75
2023/08/10 07:04:52;;;;;;;;;;;;;;;22.55;31.85;97940.66;4920787;29;1034;-76
2023/08/10 07:07:18;;;;;;;;;;;;;;;22.66;31.45;97952.44;4889382;29;1224;-76
2023/08/10 07:09:43;;;;;;;;;;;;;;;22.66;31.81;97952.44;4904754;29;1406;-76
2023/08/10 07:12:09;;;;;;;;;;;;;;;22.61;32.08;97944.50;4909860;29;1965;-76
2023/08/10 07:14:35;;;;;;;;;;;;;;;22.61;31.96;97953.00;4935249;28;917;-76
2023/08/10 07:17:02;;;;;;;;;;;;;;;22.73;32.06;97946.53;4963011;28;1248;-76
2023/08/10 07:19:27;;;;;;;;;;;;;;;22.77;31.99;97952.88;4947179;28;878;-76
2023/08/10 07:21:55;;;;;;;;;;;;;;;22.77;31.90;97954.94;4962942;28;1222;-75
2023/08/10 07:24:22;;;;;;;;;;;;;;;22.64;32.22;97952.09;4962640;28;1221;-75
2023/08/10 07:26:48;;;;;;;;;;;;;;;22.90;31.61;97960.63;4962950;28;1118;-76
2023/08/10 07:29:13;;;;;;;;;;;;;;;22.96;31.69;97953.16;4962832;28;1006;-76
2023/08/10 07:31:39;;;;;;;;;;;;;;;22.53;32.25;97955.25;4980332;28;924;-75
2023/08/10 07:34:04;;;;;;;;;;;;;;;22.48;32.23;97958.66;4962831;28;1918;-75
2023/08/10 07:36:30;;;;;;;;;;;;;;;22.62;31.92;97957.44;4980276;28;1000;-75
2023/08/10 07:38:56;;;;;;;;;;;;;;;22.74;31.87;97953.81;4962321;28;988;-76
2023/08/10 07:41:22;;;;;;;;;;;;;;;22.79;31.75;97961.72;4962295;28;1307;-75
2023/08/10 07:43:47;;;;;;;;;;;;;;;22.62;31.94;97957.44;4961338;28;923;-76
2023/08/10 07:46:13;;;;;;;;;;;;;;;22.73;31.98;97957.88;4919952;29;1261;-76
2023/08/10 07:48:39;;;;;;;;;;;;;;;22.55;32.21;97943.47;4960456;29;991;-76
2023/08/10 07:51:04;;;;;;;;;;;;;;;22.71;31.94;97949.03;4943060;29;910;-76
2023/08/10 07:53:30;;;;;;;;;;;;;;;22.44;32.21;97943.03;4943004;29;1988;-76
2023/08/10 07:55:56;;;;;;;;;;;;;;;22.63;32.00;97936.31;4927194;29;1251;-76
2023/08/10 07:58:21;;;;;;;;;;;;;;;22.75;31.82;97932.69;4960275;29;921;-77
2023/08/10 08:00:47;;;;;;;;;;;;;;;22.80;31.57;97946.31;4943476;29;989;-76
2023/08/10 08:03:13;;;;;;;;;;;;;;;22.76;31.29;97959.03;4942789;29;907;-76
2023/08/10 08:05:40;;;;;;;;;;;;;;;22.60;31.93;97965.59;4942876;29;1086;-77
2023/08/10 08:08:06;;;;;;;;;;;;;;;22.54;31.94;97973.09;4943283;29;898;-76
2023/08/10 08:10:32;;;;;;;;;;;;;;;22.38;32.22;97965.44;4959925;29;947;-77
2023/08/10 08:12:57;;;;;;;;;;;;;;;22.58;31.78;97968.06;4943039;29;1910;-76
2023/08/10 08:15:23;;;;;;;;;;;;;;;22.74;31.39;97959.50;4960134;29;891;-76
2023/08/10 08:18:08;;;;;;;;;;;;;;;22.57;31.79;97966.50;4959907;29;963;-76
2023/08/10 08:20:33;;;;;;;;;;;;;;;22.70;31.65;97958.81;4959567;29;900;-76
2023/08/10 08:22:59;;;;;;;;;;;;;;;22.49;31.95;97977.28;4959642;29;1046;-76
2023/08/10 08:25:24;;;;;;;;;;;;;;;22.28;32.30;97966.59;4959933;29;894;-76
2023/08/10 08:27:50;;;;;;;;;;;;;;;22.62;31.76;97960.25;4959780;29;920;-75
2023/08/10 08:30:15;;;;;;;;;;;;;;;22.65;31.71;97967.09;4959644;29;869;-76
2023/08/10 08:32:41;;;;;;;;;;;;;;;22.51;31.93;97971.16;4959626;29;1918;-76
2023/08/10 08:35:07;;;;;;;;;;;;;;;22.59;32.09;97975.38;4959531;29;967;-76
2023/08/10 08:37:32;;;;;;;;;;;;;;;22.59;31.84;97959.13;4919070;29;940;-76
2023/08/10 08:39:58;;;;;;;;;;;;;;;22.71;31.92;97966.06;4903234;29;1094;-75
2023/08/10 08:42:23;;;;;;;;;;;;;;;22.86;31.74;97970.03;4919380;29;1076;-75
2023/08/10 08:44:49;;;;;;;;;;;;;;;22.64;31.82;97974.81;4903219;29;961;-76
2023/08/10 08:47:14;;;;;;;;;;;;;;;22.41;32.51;97975.88;4918249;29;1080;-75
2023/08/10 08:49:40;;;;;;;;;;;;;;;22.68;31.66;97966.94;4903411;29;911;-75
2023/08/10 08:52:05;;;;;;;;;;;;;;;22.59;32.06;97966.84;4887494;29;1915;-76
2023/08/10 08:54:31;;;;;;;;;;;;;;;22.56;31.88;97964.91;4887670;29;1021;-75
2023/08/10 08:56:56;;;;;;;;;;;;;;;22.54;32.24;97978.75;4902778;29;1226;-76
2023/08/10 08:59:22;;;;;;;;;;;;;;;22.36;32.05;97980.06;4902958;29;893;-76
2023/08/10 09:01:47;;;;;;;;;;;;;;;22.56;31.92;97976.25;4884068;29;1307;-76
2023/08/10 09:04:13;;;;;;;;;;;;;;;22.47;32.09;97979.75;4884108;29;954;-75
2023/08/10 09:06:38;;;;;;;;;;;;;;;22.53;32.20;97977.16;4884192;29;1033;-75
2023/08/10 09:09:04;;;;;;;;;;;;;;;22.35;32.38;97978.50;4868922;29;979;-75
2023/08/10 09:11:30;;;;;;;;;;;;;;;22.74;31.85;97981.34;4883731;29;1382;-75
2023/08/10 09:14:05;;;;;;;;;;;;;;;22.66;31.77;97989.31;4879796;29;1911;-76
2023/08/10 09:16:30;;;;;;;;;;;;;;;22.67;31.56;97976.72;4880631;29;791;-76
2023/08/10 09:18:56;;;;;;;;;;;;;;;22.68;31.55;97983.97;4880587;29;1030;-75
2023/08/10 09:21:23;;;;;;;;;;;;;;;22.69;31.71;97988.41;4880701;29;1264;-75
2023/08/10 09:23:52;;;;;;;;;;;;;;;22.60;31.86;97988.28;4883127;29;916;-75
2023/08/10 09:26:18;;;;;;;;;;;;;;;22.56;31.80;97993.28;4899067;29;967;-76
2023/08/10 09:28:43;;;;;;;;;;;;;;;22.62;31.49;97985.78;4899112;29;944;-76
2023/08/10 09:31:09;;;;;;;;;;;;;;;22.74;31.43;97979.34;4883376;29;1131;-76
2023/08/10 09:33:35;;;;;;;;;;;;;;;22.85;31.51;97991.13;4914809;29;1989;-77
2023/08/10 09:36:01;;;;;;;;;;;;;;;22.83;31.28;97985.09;4921198;29;1029;-76
2023/08/10 09:38:27;;;;;;;;;;;;;;;22.58;31.97;97979.41;4937320;29;986;-76
2023/08/10 09:41:08;;;;;;;;;;;;;;;22.68;31.60;97977.50;4921400;29;883;-76
2023/08/10 09:43:35;;;;;;;;;;;;;;;22.50;32.26;97978.84;4921036;29;1020;-76
2023/08/10 09:46:04;;;;;;;;;;;;;;;22.51;31.99;97973.97;4966408;28;1035;-76
2023/08/10 09:48:52;;;;;;;;;;;;;;;22.63;31.80;97973.19;4944296;28;946;-76
2023/08/10 09:51:17;;;;;;;;;;;;;;;22.69;31.61;97965.72;4960803;28;924;-76
2023/08/10 09:53:44;;;;;;;;;;;;;;;22.74;31.52;97967.16;4959998;28;1979;-76
2023/08/10 09:56:09;;;;;;;;;;;;;;;22.93;31.31;97963.34;4959920;28;871;-76
2023/08/10 09:58:39;;;;;;;;;;;;;;;22.71;31.42;97949.03;4978008;28;915;-76
2023/08/10 10:01:05;;;;;;;;;;;;;;;22.86;31.41;97955.84;4960551;28;900;-75
2023/08/10 10:03:31;;;;;;;;;;;;;;;22.87;31.07;97951.75;4960043;28;893;-75
2023/08/10 10:05:57;;;;;;;;;;;;;;;22.87;31.15;97951.75;4977279;28;841;-76
2023/08/10 10:08:23;;;;;;;;;;;;;;;22.49;31.81;97953.81;4944198;28;982;-77
2023/08/10 10:10:48;;;;;;;;;;;;;;;22.51;31.96;97963.44;4943834;28;765;-76
2023/08/10 10:13:15;;;;;;;;;;;;;;;22.89;31.08;97957.00;4959889;28;1914;-76
2023/08/10 10:15:41;;;;;;;;;;;;;;;22.74;31.60;97953.81;4943546;28;1607;-75
2023/08/10 10:18:08;;;;;;;;;;;;;;;22.55;32.06;97946.31;4916829;29;968;-74
2023/08/10 10:20:34;;;;;;;;;;;;;;;22.73;31.66;97957.09;4917378;29;949;-74
2023/08/10 10:23:00;;;;;;;;;;;;;;;22.55;31.98;97963.31;4917218;29;977;-75
2023/08/10 10:25:26;;;;;;;;;;;;;;;22.62;31.71;97952.53;4918692;29;994;-74
2023/08/10 10:27:52;;;;;;;;;;;;;;;22.68;31.60;97947.09;4921334;29;1040;-75
2023/08/10 10:30:18;;;;;;;;;;;;;;;22.69;31.53;97951.53;4905276;29;835;-75
2023/08/10 10:32:44;;;;;;;;;;;;;;;22.80;31.47;97954.81;4921195;29;1911;-75
2023/08/10 10:35:11;;;;;;;;;;;;;;;22.91;31.09;97956.56;4921223;29;959;-75
2023/08/10 10:37:37;;;;;;;;;;;;;;;23.04;30.80;97943.91;4921227;29;944;-75
2023/08/10 10:40:15;;;;;;;;;;;;;;;22.78;31.31;97943.13;4905380;29;1255;-74
2023/08/10 10:42:59;;;;;;;;;;;;;;;22.85;31.34;97948.59;4920746;29;909;-75
2023/08/10 10:45:24;;;;;;;;;;;;;;;22.64;31.49;97949.28;4900544;29;1246;-77
2023/08/10 10:47:51;;;;;;;;;;;;;;;22.56;31.66;97942.22;4883305;29;1113;-76
2023/08/10 10:50:18;;;;;;;;;;;;;;;22.79;31.37;97944.72;4923244;29;894;-76
2023/08/10 10:52:55;;;;;;;;;;;;;;;22.52;31.81;97935.88;4939739;29;1906;-77
2023/08/10 10:55:36;;;;;;;;;;;;;;;22.93;31.08;97940.66;4923862;29;1474;-76
2023/08/10 10:58:04;;;;;;;;;;;;;;;22.72;31.50;97927.94;4939527;29;922;-76
2023/08/10 11:00:33;;;;;;;;;;;;;;;22.55;31.57;97930.09;4939563;29;972;-74
2023/08/10 11:02:58;;;;;;;;;;;;;;;22.70;31.59;97924.75;4923171;29;937;-76
2023/08/10 11:05:24;;;;;;;;;;;;;;;22.68;31.62;97932.91;4939512;29;794;-76
2023/08/10 11:07:50;;;;;;;;;;;;;;;22.67;31.48;97922.81;4939855;29;992;-76
2023/08/10 11:10:16;;;;;;;;;;;;;;;22.60;31.66;97928.72;4923876;29;1297;-76
2023/08/10 11:12:42;;;;;;;;;;;;;;;22.74;31.38;97936.78;4923672;29;1981;-76
2023/08/10 11:15:09;;;;;;;;;;;;;;;22.64;31.49;97940.75;4935703;29;929;-76
2023/08/10 11:17:43;;;;;;;;;;;;;;;22.79;31.33;97947.53;4939516;29;936;-76
2023/08/10 11:20:14;;;;;;;;;;;;;;;22.71;31.45;97942.56;4959879;29;855;-76
2023/08/10 11:22:49;;;;;;;;;;;;;;;22.71;31.51;97937.69;4943765;29;1156;-76
2023/08/10 11:25:16;;;;;;;;;;;;;;;22.73;31.16;97923.84;4927609;29;1169;-77
2023/08/10 11:27:45;;;;;;;;;;;;;;;22.57;31.39;97933.25;4943679;29;943;-76
2023/08/10 11:30:13;;;;;;;;;;;;;;;22.57;31.36;97943.81;4943633;29;836;-76
2023/08/10 11:32:40;;;;;;;;;;;;;;;22.61;31.37;97927.47;4928047;29;1907;-76
2023/08/10 11:35:05;;;;;;;;;;;;;;;22.41;31.78;97929.75;4943723;29;1140;-76
2023/08/10 11:37:32;;;;;;;;;;;;;;;22.52;31.85;97930.97;4927217;29;1394;-76
2023/08/10 11:40:17;;;;;;;;;;;;;;;22.57;31.59;97926.78;4943190;29;979;-76
2023/08/10 11:42:43;;;;;;;;;;;;;;;22.62;31.48;97929.06;4919738;29;993;-76
2023/08/10 11:45:16;;;;;;;;;;;;;;;22.62;31.21;97923.38;4903837;29;1107;-76
2023/08/10 11:47:43;;;;;;;;;;;;;;;22.50;31.69;97938.38;4919764;29;964;-76
2023/08/10 11:50:09;;;;;;;;;;;;;;;22.56;31.46;97943.00;4903851;29;1186;-77
2023/08/10 11:52:35;;;;;;;;;;;;;;;22.43;31.65;97935.75;4903613;29;1978;-77
2023/08/10 11:55:07;;;;;;;;;;;;;;;22.53;31.18;97920.44;4919698;29;933;-77
2023/08/10 11:57:36;;;;;;;;;;;;;;;22.44;31.37;97926.00;4888551;29;931;-76
2023/08/10 12:00:23;;;;;;;;;;;;;;;22.65;31.16;97916.81;4903874;29;1053;-76
2023/08/10 12:02:59;;;;;;;;;;;;;;;22.61;31.01;97916.13;4903552;29;1012;-76
2023/08/10 12:05:46;;;;;;;;;;;;;;;22.44;31.28;97898.44;4887996;29;1173;-76
2023/08/10 12:08:12;;;;;;;;;;;;;;;22.42;31.18;97897.31;4919445;29;1005;-77
2023/08/10 12:10:38;;;;;;;;;;;;;;;22.31;31.29;97897.63;4919484;29;1147;-76
2023/08/10 12:13:04;;;;;;;;;;;;;;;22.34;31.46;97897.53;4924263;29;1898;-76
2023/08/10 12:15:33;;;;;;;;;;;;;;;22.52;31.29;97899.00;4922859;29;924;-76
2023/08/10 12:18:00;;;;;;;;;;;;;;;22.44;31.49;97903.34;4907306;29;1000;-77
2023/08/10 12:20:25;;;;;;;;;;;;;;;22.51;31.49;97886.09;4881794;29;1126;-76
2023/08/10 12:22:51;;;;;;;;;;;;;;;22.63;30.87;97890.94;4882163;29;976;-76
2023/08/10 12:25:17;;;;;;;;;;;;;;;22.41;31.66;97890.06;4866485;29;1131;-76
2023/08/10 12:27:42;;;;;;;;;;;;;;;22.51;31.46;97897.41;4866377;29;1272;-75
2023/08/10 12:30:09;;;;;;;;;;;;;;;22.71;30.85;97897.97;4874381;29;966;-76
2023/08/10 12:32:34;;;;;;;;;;;;;;;22.49;31.56;97897.09;4881464;29;2019;-76
2023/08/10 12:35:00;;;;;;;;;;;;;;;22.75;31.03;97887.31;4881651;29;1126;-76
2023/08/10 12:37:26;;;;;;;;;;;;;;;22.81;30.74;97885.50;4918569;29;1349;-76
2023/08/10 12:39:53;;;;;;;;;;;;;;;22.67;31.21;97891.63;4887673;29;1055;-77
2023/08/10 12:42:18;;;;;;;;;;;;;;;22.64;31.37;97901.06;4887580;29;1162;-76
2023/08/10 12:44:44;;;;;;;;;;;;;;;22.62;31.16;97895.03;4903396;29;951;-76
2023/08/10 12:47:09;;;;;;;;;;;;;;;22.79;30.81;97885.13;4883987;29;1240;-76
2023/08/10 12:49:35;;;;;;;;;;;;;;;22.71;31.08;97908.53;4899288;29;995;-75
2023/08/10 12:52:00;;;;;;;;;;;;;;;22.80;30.96;97906.59;4900182;29;926;-76
2023/08/10 12:54:25;;;;;;;;;;;;;;;22.77;31.08;97906.72;4900427;29;1902;-76
2023/08/10 12:56:51;;;;;;;;;;;;;;;22.60;31.22;97906.84;4901639;29;988;-76
2023/08/10 12:59:16;;;;;;;;;;;;;;;22.52;30.92;97907.50;4902737;29;1083;-76